Time;durP1;ratioP1;P1;durP2;ratioP2;P2;SDS_P1;SDS_P2;PMS_P1;PMS_P2;Temp;Humidity;BMP_temperature;BMP_pressure;BME280_temperature;BME280_humidity;BME280_pressure;Samples;Min_cycle;Max_cycle;Signal;HPM_P1;HPM_P2
2023/03/06 00:00:30;;;;;;;;;51.25;41.50;;;;;8.51;96.67;100660.63;5077924;28;46205;-78
2023/03/06 00:02:56;;;;;;;;;37.75;35.50;;;;;8.54;97.45;100662.97;5076491;28;46218;-78
2023/03/06 00:05:21;;;;;;;;;49.75;42.25;;;;;8.51;97.33;100650.00;5059005;28;45248;-78
2023/03/06 00:07:47;;;;;;;;;44.25;38.00;;;;;8.40;98.11;100646.69;5061685;28;45331;-79
2023/03/06 00:10:15;;;;;;;;;51.25;42.00;;;;;8.52;98.37;100657.81;5079186;28;45339;-78
2023/03/06 00:12:41;;;;;;;;;47.00;39.50;;;;;8.56;98.36;100655.69;5079081;28;45555;-78
2023/03/06 00:15:06;;;;;;;;;48.75;42.00;;;;;8.54;97.92;100644.44;5078951;27;45453;-78
2023/03/06 00:17:32;;;;;;;;;46.25;37.75;;;;;8.48;97.62;100648.53;5079510;27;45243;-78
2023/03/06 00:19:57;;;;;;;;;50.25;40.75;;;;;8.46;97.88;100651.34;5074282;28;52151;-78
2023/03/06 00:22:22;;;;;;;;;46.75;39.50;;;;;8.47;97.70;100638.91;5074162;28;48713;-78
2023/03/06 00:24:47;;;;;;;;;43.75;38.75;;;;;8.57;98.09;100646.75;5079135;28;45236;-78
2023/03/06 00:27:13;;;;;;;;;47.75;39.75;;;;;8.50;98.52;100633.28;5079090;28;45801;-78
2023/03/06 00:29:39;;;;;;;;;44.75;38.75;;;;;8.55;98.41;100651.38;5069637;27;45557;-78
2023/03/06 00:32:04;;;;;;;;;52.25;42.50;;;;;8.50;98.45;100641.22;5060928;28;48227;-78
2023/03/06 00:34:30;;;;;;;;;40.00;36.50;;;;;8.54;98.71;100637.31;5077787;28;45332;-78
2023/03/06 00:36:55;;;;;;;;;43.75;37.25;;;;;8.58;98.95;100632.50;5079284;27;45417;-78
2023/03/06 00:39:21;;;;;;;;;46.75;40.25;;;;;8.51;98.26;100615.56;5074375;28;45351;-78
2023/03/06 00:41:46;;;;;;;;;42.50;37.25;;;;;8.50;99.00;100624.53;5074467;28;45591;-79
2023/03/06 00:44:11;;;;;;;;;46.75;39.50;;;;;8.43;99.37;100619.03;5077408;28;46015;-79
2023/03/06 00:46:36;;;;;;;;;38.00;35.25;;;;;8.37;100.00;100617.88;5078735;28;45288;-79
2023/03/06 00:49:02;;;;;;;;;46.00;38.75;;;;;8.28;100.00;100616.19;5074269;28;45300;-79
2023/03/06 00:51:27;;;;;;;;;42.75;37.50;;;;;8.33;100.00;100629.78;5073709;28;45441;-79
2023/03/06 00:53:53;;;;;;;;;46.25;38.50;;;;;8.26;100.00;100620.84;5078913;28;45371;-78
2023/03/06 00:56:18;;;;;;;;;42.50;36.50;;;;;8.20;100.00;100620.47;5078717;27;45436;-78
2023/03/06 00:58:44;;;;;;;;;48.75;40.00;;;;;8.16;100.00;100613.84;5078505;28;45504;-79
2023/03/06 01:01:09;;;;;;;;;48.50;39.00;;;;;8.13;100.00;100616.81;5078606;27;45546;-79
2023/03/06 01:03:34;;;;;;;;;37.25;34.00;;;;;8.15;100.00;100622.81;5078649;28;45406;-78
2023/03/06 01:06:00;;;;;;;;;44.00;37.25;;;;;8.08;100.00;100608.53;5077077;28;45351;-79
2023/03/06 01:08:25;;;;;;;;;40.25;34.75;;;;;8.17;100.00;100620.00;5078572;27;45741;-79
2023/03/06 01:10:51;;;;;;;;;41.75;37.50;;;;;8.19;100.00;100621.47;5078210;27;46184;-79
2023/03/06 01:13:16;;;;;;;;;39.75;35.25;;;;;8.08;100.00;100605.88;5078426;27;45848;-79
2023/03/06 01:15:41;;;;;;;;;42.25;37.75;;;;;8.06;100.00;100605.22;5078594;28;45322;-78
2023/03/06 01:18:07;;;;;;;;;42.00;36.25;;;;;7.98;100.00;100608.66;5078514;27;45342;-79
2023/03/06 01:20:32;;;;;;;;;41.50;36.00;;;;;8.07;100.00;100618.31;5078153;27;45514;-78
2023/03/06 01:22:57;;;;;;;;;39.50;35.00;;;;;7.99;100.00;100599.72;5079236;28;45627;-78
2023/03/06 01:25:24;;;;;;;;;42.50;36.50;;;;;8.04;100.00;100615.97;5081797;27;45410;-79
2023/03/06 01:27:49;;;;;;;;;40.50;35.75;;;;;8.03;100.00;100608.19;5080535;28;46009;-78
2023/03/06 01:30:15;;;;;;;;;43.25;37.25;;;;;8.03;100.00;100606.38;5081003;27;45827;-78
2023/03/06 01:32:40;;;;;;;;;33.50;30.75;;;;;8.05;100.00;100606.22;5081582;27;45399;-79
2023/03/06 01:35:06;;;;;;;;;47.25;35.50;;;;;8.07;100.00;100618.31;5081692;27;45890;-78
2023/03/06 01:37:34;;;;;;;;;43.25;38.75;;;;;7.82;100.00;100575.03;5076153;28;46755;-79
2023/03/06 01:40:00;;;;;;;;;41.25;36.00;;;;;7.98;100.00;100589.31;5075735;28;45939;-79
2023/03/06 01:42:25;;;;;;;;;33.00;30.50;;;;;8.05;100.00;100604.38;5081551;27;45243;-79
2023/03/06 01:45:06;;;;;;;;;45.00;37.25;;;;;8.07;100.00;100605.06;5081528;27;45406;-78
2023/03/06 01:47:31;;;;;;;;;40.00;35.50;;;;;8.02;100.00;100601.25;5080193;28;46927;-79
2023/03/06 01:49:59;;;;;;;;;35.25;33.50;;;;;8.00;100.00;100603.22;5081236;27;46431;-78
2023/03/06 01:52:30;;;;;;;;;45.25;38.25;;;;;7.92;100.00;100591.63;5081324;27;45390;-79
2023/03/06 01:55:03;;;;;;;;;39.50;36.25;;;;;7.89;100.00;100586.66;5081105;27;45267;-79
2023/03/06 01:57:33;;;;;;;;;44.50;37.00;;;;;7.95;100.00;100603.69;5080082;28;47289;-78
2023/03/06 02:00:12;;;;;;;;;41.75;34.50;;;;;7.94;100.00;100597.56;5080862;28;45429;-79
2023/03/06 02:02:39;;;;;;;;;41.75;36.25;;;;;7.82;100.00;100586.44;5079816;28;46027;-79
2023/03/06 02:05:07;;;;;;;;;39.50;34.00;;;;;7.80;100.00;100587.59;5080100;27;45192;-78
2023/03/06 02:07:34;;;;;;;;;40.25;36.00;;;;;7.88;100.00;100589.44;5079598;28;47054;-79
2023/03/06 02:09:59;;;;;;;;;43.75;36.75;;;;;7.70;100.00;100558.63;5081102;27;45445;-79
2023/03/06 02:12:25;;;;;;;;;40.00;35.50;;;;;7.86;100.00;100581.66;5080749;28;45312;-79
2023/03/06 02:14:50;;;;;;;;;42.00;36.00;;;;;7.91;100.00;100597.91;5081313;27;45448;-79
2023/03/06 02:17:17;;;;;;;;;44.50;36.25;;;;;7.85;100.00;100576.53;5079626;27;47099;-79
2023/03/06 02:20:02;;;;;;;;;39.75;34.50;;;;;7.81;100.00;100576.84;5081145;27;45295;-78
2023/03/06 02:22:39;;;;;;;;;45.00;37.25;;;;;7.87;100.00;100587.81;5080616;27;45294;-78
2023/03/06 02:25:32;;;;;;;;;32.00;26.75;;;;;7.86;100.00;100575.53;5081185;27;45369;-78
2023/03/06 02:27:58;;;;;;;;;44.50;37.00;;;;;7.85;100.00;100579.19;5070663;28;45619;-78
2023/03/06 02:30:25;;;;;;;;;44.00;35.00;;;;;7.76;100.00;100559.81;5076525;28;47190;-79
2023/03/06 02:32:51;;;;;;;;;42.25;35.75;;;;;7.84;100.00;100559.81;5079119;28;45459;-78
2023/03/06 02:35:23;;;;;;;;;41.50;33.50;;;;;7.76;100.00;100544.78;5079280;28;45532;-79
2023/03/06 02:37:50;;;;;;;;;35.00;33.25;;;;;7.92;100.00;100562.50;5080768;27;45234;-78
2023/03/06 02:40:18;;;;;;;;;40.00;35.25;;;;;7.87;100.00;100542.81;5080523;28;46563;-78
2023/03/06 02:42:47;;;;;;;;;36.00;33.75;;;;;7.87;99.98;100540.97;5080446;28;45412;-78
2023/03/06 02:45:16;;;;;;;;;43.00;35.00;;;;;7.99;99.73;100551.28;5080407;27;45509;-78
2023/03/06 02:47:41;;;;;;;;;42.25;36.75;;;;;7.98;99.75;100544.31;5080394;27;45532;-78
2023/03/06 02:50:07;;;;;;;;;34.25;32.75;;;;;8.03;99.67;100549.97;5078754;28;47632;-79
2023/03/06 02:52:32;;;;;;;;;36.75;33.75;;;;;7.96;99.80;100532.06;5078967;28;45473;-79
2023/03/06 02:54:58;;;;;;;;;43.75;36.50;;;;;8.05;99.53;100540.06;5078888;28;45386;-78
2023/03/06 02:57:23;;;;;;;;;38.00;34.00;;;;;8.60;97.60;100532.50;5080482;28;45388;-78
2023/03/06 02:59:48;;;;;;;;;35.50;33.75;;;;;8.71;96.36;100531.34;5078724;28;48627;-78
2023/03/06 03:02:14;;;;;;;;;31.25;30.25;;;;;8.82;94.09;100535.47;5080479;28;45447;-78
2023/03/06 03:04:39;;;;;;;;;35.50;32.75;;;;;8.81;93.25;100525.88;5078592;28;45391;-78
2023/03/06 03:07:04;;;;;;;;;39.25;34.00;;;;;8.87;92.79;100533.16;5080004;28;45404;-78
2023/03/06 03:09:35;;;;;;;;;34.25;29.00;;;;;8.89;91.52;100532.97;5080158;27;46000;-78
2023/03/06 03:12:01;;;;;;;;;36.25;32.00;;;;;8.15;91.69;100508.13;5079056;28;45596;-78
2023/03/06 03:14:26;;;;;;;;;31.00;28.25;;;;;7.82;93.19;100482.44;5079844;27;45632;-79
2023/03/06 03:16:51;;;;;;;;;36.00;33.50;;;;;8.29;90.84;100512.75;5080090;28;45382;-78
2023/03/06 03:19:16;;;;;;;;;35.00;29.75;;;;;8.17;91.26;100520.19;5078264;28;54674;-78
2023/03/06 03:21:42;;;;;;;;;36.75;33.50;;;;;8.69;89.93;100515.63;5079893;27;45385;-78
2023/03/06 03:24:07;;;;;;;;;35.75;32.00;;;;;8.08;90.69;100500.84;5080136;27;45428;-78
2023/03/06 03:26:33;;;;;;;;;35.50;33.50;;;;;8.04;91.14;100510.09;5080141;27;45393;-78
2023/03/06 03:28:58;;;;;;;;;32.00;27.00;;;;;8.01;91.39;100504.28;5079078;28;47544;-78
2023/03/06 03:31:23;;;;;;;;;37.00;32.50;;;;;8.02;91.39;100512.06;5079671;27;45539;-79
2023/03/06 03:33:49;;;;;;;;;33.50;27.50;;;;;7.97;91.29;100506.44;5076682;27;45382;-78
2023/03/06 03:36:14;;;;;;;;;33.50;26.50;;;;;7.97;91.12;100514.38;5068195;28;45957;-78
2023/03/06 03:38:39;;;;;;;;;36.00;33.75;;;;;7.93;90.62;100513.88;5078103;28;47502;-77
2023/03/06 03:41:05;;;;;;;;;36.25;30.75;;;;;7.84;90.65;100493.66;5079894;28;45327;-77
2023/03/06 03:43:31;;;;;;;;;36.75;34.00;;;;;7.87;90.60;100508.41;5077976;28;45496;-78
2023/03/06 03:45:56;;;;;;;;;41.00;33.75;;;;;7.75;90.39;100500.75;5079527;27;45283;-78
2023/03/06 03:48:21;;;;;;;;;39.50;32.75;;;;;7.75;90.44;100506.06;5078138;28;48230;-78
2023/03/06 03:50:46;;;;;;;;;34.25;30.25;;;;;7.73;90.41;100508.06;5079758;28;45429;-78
2023/03/06 03:53:12;;;;;;;;;38.00;33.25;;;;;8.09;89.27;100491.09;5079646;28;45270;-78
2023/03/06 03:55:37;;;;;;;;;33.75;30.75;;;;;8.33;87.96;100492.91;5079309;28;45399;-78
2023/03/06 03:58:03;;;;;;;;;35.75;30.50;;;;;8.27;88.06;100490.94;5077688;28;47305;-78
2023/03/06 04:00:28;;;;;;;;;30.75;26.50;;;;;8.07;88.46;100474.53;5079748;27;45247;-78
2023/03/06 04:02:54;;;;;;;;;32.25;27.00;;;;;8.20;88.01;100497.84;5075868;27;45584;-78
2023/03/06 04:05:19;;;;;;;;;32.75;30.00;;;;;8.42;87.38;100493.75;5068531;28;45301;-78
2023/03/06 04:07:44;;;;;;;;;33.00;31.50;;;;;8.46;86.82;100489.78;5078529;28;46287;-79
2023/03/06 04:10:11;;;;;;;;;42.75;34.00;;;;;8.45;86.97;100484.63;5079496;28;45336;-78
2023/03/06 04:12:36;;;;;;;;;31.50;29.75;;;;;8.36;86.89;100467.09;5079187;27;45357;-78
2023/03/06 04:15:03;;;;;;;;;36.50;31.25;;;;;8.43;87.29;100483.97;5077382;28;46111;-78
2023/03/06 04:17:29;;;;;;;;;41.50;35.00;;;;;8.38;86.72;100467.75;5079030;27;45959;-78
2023/03/06 04:19:54;;;;;;;;;39.25;32.75;;;;;8.28;87.43;100475.84;5079398;27;45443;-78
2023/03/06 04:22:20;;;;;;;;;40.75;34.50;;;;;8.30;87.12;100463.28;5079024;28;45281;-78
2023/03/06 04:24:48;;;;;;;;;29.00;27.75;;;;;8.26;87.07;100461.97;5079489;27;45496;-78
2023/03/06 04:27:13;;;;;;;;;29.25;25.25;;;;;8.36;86.64;100473.22;5078578;27;46099;-78
2023/03/06 04:29:38;;;;;;;;;36.75;31.25;;;;;8.31;86.70;100462.28;5078597;28;45228;-78
2023/03/06 04:32:04;;;;;;;;;37.00;32.00;;;;;7.85;88.49;100468.06;5077733;28;45366;-78
2023/03/06 04:34:29;;;;;;;;;35.00;32.00;;;;;7.79;89.60;100462.44;5079021;27;45498;-78
2023/03/06 04:36:54;;;;;;;;;41.75;34.75;;;;;7.63;89.81;100451.81;5077495;28;47302;-79
2023/03/06 04:39:20;;;;;;;;;32.50;32.50;;;;;7.65;90.01;100458.59;5077551;28;54043;-78
2023/03/06 04:41:45;;;;;;;;;37.50;32.50;;;;;7.63;90.04;100457.09;5078972;27;45374;-78
2023/03/06 04:44:10;;;;;;;;;38.50;34.25;;;;;7.63;90.58;100463.19;5078698;27;49787;-78
2023/03/06 04:46:36;;;;;;;;;46.50;33.75;;;;;7.65;90.68;100463.03;5077341;28;48190;-78
2023/03/06 04:49:02;;;;;;;;;30.75;30.75;;;;;7.56;90.72;100444.53;5079102;28;45302;-78
2023/03/06 04:51:28;;;;;;;;;32.00;29.50;;;;;7.58;90.85;100458.41;5078829;27;45404;-78
2023/03/06 04:53:53;;;;;;;;;41.25;34.75;;;;;7.64;91.18;100470.16;5078669;27;45809;-78
2023/03/06 04:56:19;;;;;;;;;33.50;29.50;;;;;7.62;91.37;100466.00;5078478;27;45748;-78
2023/03/06 04:58:44;;;;;;;;;39.25;34.50;;;;;7.61;91.08;100470.50;5079455;28;45390;-78
2023/03/06 05:01:10;;;;;;;;;31.50;27.00;;;;;7.62;90.23;100458.06;5082411;27;45333;-78
2023/03/06 05:03:36;;;;;;;;;32.75;31.50;;;;;7.58;90.59;100460.22;5080867;27;46212;-79
2023/03/06 05:06:01;;;;;;;;;39.25;33.25;;;;;7.63;91.85;100476.44;5081684;27;45521;-79
2023/03/06 05:08:27;;;;;;;;;38.00;33.25;;;;;7.62;91.41;100477.44;5082079;27;45339;-78
2023/03/06 05:11:00;;;;;;;;;28.75;27.25;;;;;7.62;91.40;100482.72;5068714;28;45233;-78
2023/03/06 05:13:26;;;;;;;;;31.75;31.50;;;;;7.52;91.86;100458.22;5082252;27;45272;-78
2023/03/06 05:15:52;;;;;;;;;32.75;31.00;;;;;7.65;92.58;100485.03;5080515;28;48400;-78
2023/03/06 05:18:18;;;;;;;;;35.25;32.25;;;;;7.59;92.27;100469.81;5082151;27;45302;-78
2023/03/06 05:20:44;;;;;;;;;38.00;29.75;;;;;7.54;91.85;100466.84;5081439;27;45237;-78
2023/03/06 05:23:09;;;;;;;;;45.50;36.00;;;;;7.52;92.04;100459.06;5081816;27;45469;-78
2023/03/06 05:25:37;;;;;;;;;40.00;33.50;;;;;7.60;92.34;100476.75;5081370;28;45262;-78
2023/03/06 05:28:03;;;;;;;;;43.00;34.50;;;;;7.52;92.01;100469.63;5080380;28;45369;-79
2023/03/06 05:30:28;;;;;;;;;34.50;31.75;;;;;7.58;92.10;100482.19;5081304;27;45529;-78
2023/03/06 05:32:53;;;;;;;;;42.00;36.00;;;;;7.57;91.65;100472.63;5081410;28;45534;-78
2023/03/06 05:35:21;;;;;;;;;31.00;29.00;;;;;7.47;92.18;100468.44;5081251;27;47870;-79
2023/03/06 05:37:47;;;;;;;;;45.00;37.50;;;;;7.52;91.79;100469.63;5080283;28;46288;-78
2023/03/06 05:40:13;;;;;;;;;45.50;37.00;;;;;7.52;92.58;100464.34;5081672;28;45507;-78
2023/03/06 05:42:39;;;;;;;;;38.50;34.00;;;;;7.43;91.87;100449.44;5080140;28;46447;-78
2023/03/06 05:45:04;;;;;;;;;45.75;34.50;;;;;7.54;92.36;100478.22;5081154;27;45309;-78
2023/03/06 05:47:30;;;;;;;;;38.75;34.75;;;;;7.50;92.17;100473.41;5080295;28;45409;-78
2023/03/06 05:49:56;;;;;;;;;44.25;37.50;;;;;7.41;92.94;100467.28;5081232;28;45313;-78
2023/03/06 05:52:21;;;;;;;;;39.00;35.75;;;;;7.49;92.94;100479.69;5080066;28;46236;-78
2023/03/06 05:54:50;;;;;;;;;38.00;35.00;;;;;7.48;93.53;100467.47;5080950;28;46102;-78
2023/03/06 05:57:17;;;;;;;;;31.00;28.75;;;;;7.44;93.59;100451.94;5079987;28;45971;-78
2023/03/06 05:59:42;;;;;;;;;39.25;33.25;;;;;7.51;93.74;100465.31;5081118;27;45287;-79
2023/03/06 06:02:08;;;;;;;;;39.50;33.75;;;;;7.27;93.75;100429.06;5081298;27;45436;-77
2023/03/06 06:04:33;;;;;;;;;43.25;37.00;;;;;7.53;94.30;100459.88;5080828;28;45340;-77
2023/03/06 06:07:00;;;;;;;;;41.50;34.50;;;;;7.55;93.67;100457.91;5081296;28;46128;-76
2023/03/06 06:09:26;;;;;;;;;38.75;34.75;;;;;7.56;93.77;100443.69;5078968;28;45386;-77
2023/03/06 06:11:57;;;;;;;;;31.50;27.75;;;;;7.54;92.93;100438.56;5079813;28;45344;-77
2023/03/06 06:14:23;;;;;;;;;35.75;29.25;;;;;7.63;92.06;100447.34;5079995;28;45349;-78
2023/03/06 06:16:49;;;;;;;;;32.25;31.00;;;;;7.60;92.10;100444.19;5080957;27;45436;-77
2023/03/06 06:19:17;;;;;;;;;38.25;34.50;;;;;7.59;91.21;100456.59;5080943;27;45333;-77
2023/03/06 06:21:47;;;;;;;;;37.00;33.75;;;;;7.55;91.89;100450.78;5080987;27;46184;-76
2023/03/06 06:24:14;;;;;;;;;32.00;29.25;;;;;7.44;91.87;100424.66;5079964;28;46081;-76
2023/03/06 06:26:40;;;;;;;;;32.75;28.50;;;;;7.60;91.90;100447.66;5069636;28;45658;-77
2023/03/06 06:29:06;;;;;;;;;36.25;32.75;;;;;7.59;91.63;100443.34;5073895;28;45337;-76
2023/03/06 06:31:31;;;;;;;;;31.75;28.00;;;;;7.62;91.90;100450.13;5071816;28;45473;-76
2023/03/06 06:33:56;;;;;;;;;37.00;32.25;;;;;7.63;91.93;100444.69;5079208;28;47096;-78
2023/03/06 06:36:22;;;;;;;;;36.00;30.75;;;;;7.67;91.70;100445.19;5080786;28;45341;-75
2023/03/06 06:38:48;;;;;;;;;27.50;27.50;;;;;7.64;92.20;100434.94;5080080;28;45335;-74
2023/03/06 06:41:14;;;;;;;;;28.50;26.50;;;;;7.67;92.10;100430.13;5066944;28;45452;-74
2023/03/06 06:43:39;;;;;;;;;31.00;29.00;;;;;7.60;92.67;100410.63;5078787;28;46082;-73
2023/03/06 06:46:09;;;;;;;;;35.50;34.50;;;;;7.63;93.08;100412.94;5073384;27;45547;-75
2023/03/06 06:48:36;;;;;;;;;37.75;34.25;;;;;7.62;93.55;100416.59;5074954;28;45634;-74
2023/03/06 06:51:03;;;;;;;;;34.00;32.25;;;;;7.62;93.51;100423.69;5073473;27;45696;-75
2023/03/06 06:53:29;;;;;;;;;34.00;31.50;;;;;7.53;93.42;100413.09;5066912;28;46543;-75
2023/03/06 06:55:54;;;;;;;;;34.00;32.50;;;;;7.60;93.15;100423.84;5071801;28;45426;-75
2023/03/06 06:58:19;;;;;;;;;35.50;33.00;;;;;7.62;93.13;100415.75;5069039;28;49061;-75
2023/03/06 07:00:44;;;;;;;;;39.00;33.75;;;;;7.62;93.62;100431.63;5079504;27;45472;-75
2023/03/06 07:03:13;;;;;;;;;40.75;34.25;;;;;7.63;93.56;100434.09;5079713;28;50560;-75
2023/03/06 07:05:38;;;;;;;;;45.00;40.00;;;;;7.62;93.58;100439.56;5078237;28;45403;-75
2023/03/06 07:08:04;;;;;;;;;41.50;37.25;;;;;7.66;93.09;100454.13;5079841;28;45254;-75
2023/03/06 07:10:29;;;;;;;;;34.75;32.50;;;;;7.60;92.72;100458.22;5078159;28;46267;-75
2023/03/06 07:12:55;;;;;;;;;33.00;31.00;;;;;7.62;92.84;100458.91;5079911;28;46085;-75
2023/03/06 07:15:21;;;;;;;;;35.50;34.25;;;;;7.68;92.85;100463.56;5075320;28;45260;-75
2023/03/06 07:17:47;;;;;;;;;37.75;32.25;;;;;7.73;92.38;100470.19;5077543;28;45495;-75
2023/03/06 07:20:12;;;;;;;;;30.75;28.50;;;;;7.76;92.32;100464.56;5078770;27;45472;-74
2023/03/06 07:22:38;;;;;;;;;40.25;35.25;;;;;7.78;92.62;100465.25;5077414;28;46917;-75
2023/03/06 07:25:04;;;;;;;;;39.25;36.00;;;;;7.82;92.14;100463.91;5079545;28;45342;-74
2023/03/06 07:27:30;;;;;;;;;37.50;33.50;;;;;7.89;92.06;100464.91;5079113;27;45302;-76
2023/03/06 07:29:55;;;;;;;;;34.75;29.50;;;;;7.88;91.53;100467.72;5078283;27;45410;-74
2023/03/06 07:32:21;;;;;;;;;47.25;40.00;;;;;7.91;92.27;100462.94;5077272;28;47270;-74
2023/03/06 07:34:46;;;;;;;;;50.75;40.50;;;;;7.89;92.08;100454.34;5079492;27;45414;-76
2023/03/06 07:37:12;;;;;;;;;41.00;35.00;;;;;7.86;91.71;100446.72;5079103;27;45470;-74
2023/03/06 07:39:37;;;;;;;;;42.75;36.00;;;;;7.90;91.21;100452.53;5065822;27;45287;-75
2023/03/06 07:42:03;;;;;;;;;42.75;33.00;;;;;7.95;91.22;100464.28;5079466;28;45301;-75
2023/03/06 07:44:28;;;;;;;;;40.00;33.75;;;;;7.92;91.73;100454.00;5076804;28;45624;-75
2023/03/06 07:46:54;;;;;;;;;41.00;34.25;;;;;7.99;91.44;100454.16;5071066;27;45468;-75
2023/03/06 07:49:19;;;;;;;;;39.25;35.50;;;;;7.93;91.81;100444.25;5077666;28;45696;-76
2023/03/06 07:51:44;;;;;;;;;40.75;35.25;;;;;8.04;91.73;100456.31;5078518;28;47088;-76
2023/03/06 07:54:10;;;;;;;;;42.25;36.50;;;;;8.08;92.51;100460.28;5074408;27;45799;-75
2023/03/06 07:56:38;;;;;;;;;34.25;33.25;;;;;8.11;92.82;100457.31;5072951;28;45235;-74
2023/03/06 07:59:03;;;;;;;;;39.75;37.00;;;;;8.11;93.35;100446.72;5070043;28;45496;-75
2023/03/06 08:01:29;;;;;;;;;30.25;29.25;;;;;8.19;94.19;100462.63;5081561;28;45516;-75
2023/03/06 08:03:54;;;;;;;;;45.25;37.00;;;;;8.18;93.48;100460.97;5079131;27;45418;-75
2023/03/06 08:06:25;;;;;;;;;38.75;34.00;;;;;8.15;93.20;100461.31;5072113;27;45814;-75
2023/03/06 08:08:53;;;;;;;;;41.00;36.75;;;;;8.22;92.61;100469.41;5064971;28;45290;-74
2023/03/06 08:11:21;;;;;;;;;39.25;35.75;;;;;8.13;91.75;100460.63;5076687;27;46447;-74
2023/03/06 08:13:48;;;;;;;;;21.75;21.00;;;;;8.15;91.51;100460.47;5078526;27;45382;-74
2023/03/06 08:16:14;;;;;;;;;30.00;29.00;;;;;8.23;91.92;100464.94;5078449;28;45232;-74
2023/03/06 08:18:40;;;;;;;;;42.75;36.00;;;;;8.24;91.83;100466.59;5076113;28;46262;-74
2023/03/06 08:21:06;;;;;;;;;41.50;34.75;;;;;8.27;91.74;100468.91;5076848;28;47458;-74
2023/03/06 08:23:33;;;;;;;;;33.00;31.25;;;;;8.19;91.05;100462.63;5078435;27;45289;-73
2023/03/06 08:26:00;;;;;;;;;39.50;33.75;;;;;8.25;91.06;100469.06;5078422;27;45354;-74
2023/03/06 08:28:27;;;;;;;;;33.00;29.50;;;;;8.16;90.88;100465.59;5075751;27;45557;-74
2023/03/06 08:30:52;;;;;;;;;35.75;34.25;;;;;8.16;90.57;100465.59;5074179;27;46081;-73
2023/03/06 08:33:18;;;;;;;;;38.25;35.50;;;;;8.07;90.58;100453.34;5078677;28;45449;-74
2023/03/06 08:35:43;;;;;;;;;33.00;31.00;;;;;8.13;90.64;100473.03;5082610;27;45350;-73
2023/03/06 08:38:08;;;;;;;;;41.50;37.75;;;;;8.13;90.72;100471.22;5081171;28;45515;-72
2023/03/06 08:40:34;;;;;;;;;39.50;35.25;;;;;8.12;91.59;100469.56;5082338;28;45421;-75
2023/03/06 08:42:59;;;;;;;;;35.25;31.50;;;;;8.09;91.09;100461.97;5080787;27;46038;-73
2023/03/06 08:45:24;;;;;;;;;32.25;30.25;;;;;8.06;91.10;100463.09;5082773;27;45218;-75
2023/03/06 08:47:49;;;;;;;;;35.50;33.50;;;;;8.14;90.77;100470.22;5082573;27;45333;-74
2023/03/06 08:50:15;;;;;;;;;36.50;34.75;;;;;8.09;91.38;100459.31;5082349;28;55286;-74
2023/03/06 08:52:40;;;;;;;;;36.25;34.75;;;;;8.23;91.03;100475.53;5078474;28;45317;-74
2023/03/06 08:55:06;;;;;;;;;29.75;27.75;;;;;8.23;90.70;100475.53;5081285;28;45999;-73
2023/03/06 08:57:31;;;;;;;;;38.25;33.75;;;;;8.19;90.55;100475.03;5077914;28;46474;-74
2023/03/06 08:59:57;;;;;;;;;34.00;32.75;;;;;8.20;90.65;100472.22;5082284;27;46110;-76
2023/03/06 09:02:22;;;;;;;;;44.25;37.75;;;;;8.26;90.54;100469.91;5081944;28;45195;-75
2023/03/06 09:04:47;;;;;;;;;45.50;39.75;;;;;8.36;90.42;100478.53;5081298;28;45397;-74
2023/03/06 09:07:13;;;;;;;;;32.75;30.75;;;;;8.41;90.76;100478.84;5085964;28;45231;-76
2023/03/06 09:09:38;;;;;;;;;35.00;31.25;;;;;8.45;89.88;100476.69;5082292;28;49415;-75
2023/03/06 09:12:03;;;;;;;;;34.75;33.00;;;;;8.50;90.17;100477.00;5080537;27;45398;-74
2023/03/06 09:14:30;;;;;;;;;34.25;31.00;;;;;8.66;90.51;100485.97;5071767;27;45353;-75
2023/03/06 09:16:55;;;;;;;;;37.50;32.50;;;;;9.24;87.65;100475.22;5081568;28;45527;-76
2023/03/06 09:19:21;;;;;;;;;37.00;34.00;;;;;9.45;86.05;100489.69;5083619;27;45345;-76
2023/03/06 09:21:47;;;;;;;;;37.50;33.75;;;;;9.37;83.97;100477.28;5080595;28;45800;-76
2023/03/06 09:24:12;;;;;;;;;37.50;31.00;;;;;8.90;86.48;100477.16;5082820;27;45379;-75
2023/03/06 09:26:38;;;;;;;;;38.00;34.00;;;;;8.82;87.11;100480.63;5081397;27;45389;-75
2023/03/06 09:29:03;;;;;;;;;34.00;31.25;;;;;8.80;87.96;100469.38;5082809;28;47269;-76
2023/03/06 09:31:30;;;;;;;;;33.75;32.50;;;;;9.39;85.21;100485.09;5066533;28;57774;-76
2023/03/06 09:33:56;;;;;;;;;42.50;33.25;;;;;9.55;85.13;100476.25;5081344;28;45291;-77
2023/03/06 09:36:22;;;;;;;;;18.50;13.75;;;;;9.65;84.01;100484.81;5083798;27;45330;-76
2023/03/06 09:38:48;;;;;;;;;39.50;33.25;;;;;9.63;83.05;100486.81;5081764;28;48365;-75
2023/03/06 09:41:35;;;;;;;;;36.25;33.75;;;;;9.64;83.30;100480.47;5083217;28;45362;-75
2023/03/06 09:44:04;;;;;;;;;40.25;34.50;;;;;9.73;83.31;100490.06;5081938;28;45406;-77
2023/03/06 09:47:05;;;;;;;;;38.00;33.00;;;;;9.79;83.49;100493.84;5082063;27;45254;-75
2023/03/06 09:49:56;;;;;;;;;34.50;33.00;;;;;9.87;83.50;100487.66;5056421;28;47908;-76
2023/03/06 09:52:44;;;;;;;;;37.50;32.00;;;;;9.96;84.42;100497.22;5083602;28;45307;-76
2023/03/06 09:55:19;;;;;;;;;39.75;35.25;;;;;10.14;83.93;100490.78;5082204;27;45244;-75
2023/03/06 09:58:01;;;;;;;;;36.50;34.75;;;;;10.20;83.72;100492.75;5081011;28;45717;-76
2023/03/06 10:01:06;;;;;;;;;33.00;30.00;;;;;10.25;82.95;100486.91;5082358;27;45678;-76
2023/03/06 10:03:53;;;;;;;;;30.75;29.75;;;;;10.34;82.39;100487.66;5075028;28;45336;-75
2023/03/06 10:06:19;;;;;;;;;39.25;33.00;;;;;10.38;81.98;100488.94;5081509;28;45413;-76
2023/03/06 10:09:23;;;;;;;;;38.75;33.00;;;;;10.41;81.96;100493.91;5082647;28;45697;-76
2023/03/06 10:11:59;;;;;;;;;33.50;32.50;;;;;10.39;82.22;100471.19;5082709;27;45484;-76
2023/03/06 10:14:45;;;;;;;;;41.25;34.75;;;;;10.58;82.03;100491.13;5080164;28;45458;-75
2023/03/06 10:17:24;;;;;;;;;36.75;33.25;;;;;10.63;81.66;100479.97;5081552;27;45322;-75
2023/03/06 10:19:51;;;;;;;;;35.00;32.75;;;;;10.70;81.04;100476.41;5081537;27;45603;-75
2023/03/06 10:22:45;;;;;;;;;38.25;32.75;;;;;10.36;82.94;100490.97;5080770;27;46296;-75
2023/03/06 10:25:28;;;;;;;;;34.75;29.00;;;;;10.35;83.65;100482.16;5079033;28;45391;-76
2023/03/06 10:28:00;;;;;;;;;34.25;32.00;;;;;10.31;83.46;100464.94;5081248;27;45509;-75
2023/03/06 10:30:58;;;;;;;;;36.25;32.50;;;;;10.39;83.71;100479.16;5066314;27;47431;-75
2023/03/06 10:33:26;;;;;;;;;32.25;30.75;;;;;10.42;82.99;100479.59;5080885;28;45529;-75
2023/03/06 10:35:54;;;;;;;;;31.25;26.50;;;;;10.35;80.78;100482.16;5081134;28;45374;-75
2023/03/06 10:38:37;;;;;;;;;38.25;32.00;;;;;10.38;79.90;100472.19;5081552;27;45259;-75
2023/03/06 10:41:11;;;;;;;;;34.50;32.75;;;;;10.35;79.54;100470.69;5076530;28;47011;-77
2023/03/06 10:43:43;;;;;;;;;35.25;30.75;;;;;10.30;78.84;100465.13;5081125;28;47379;-76
2023/03/06 10:46:10;;;;;;;;;32.50;30.25;;;;;10.39;78.10;100469.38;5081405;27;45439;-74
2023/03/06 10:48:38;;;;;;;;;33.50;28.75;;;;;10.49;77.93;100479.75;5081474;28;45277;-76
2023/03/06 10:51:24;;;;;;;;;35.00;28.67;;;;;10.54;74.33;100480.03;5079737;28;45386;-73
2023/03/06 10:53:54;;;;;;;;;29.67;27.00;;;;;10.59;74.20;100474.16;5079937;28;46266;-76
2023/03/06 10:56:29;;;;;;;;;29.50;25.25;;;;;10.62;73.45;100470.34;5078182;28;45276;-74
2023/03/06 10:59:06;;;;;;;;;33.50;30.00;;;;;10.72;73.63;100479.69;5080215;27;45337;-74
2023/03/06 11:01:32;;;;;;;;;30.00;27.67;;;;;10.70;72.07;100464.94;5079659;28;45508;-74
2023/03/06 11:04:27;;;;;;;;;32.00;26.00;;;;;10.82;71.70;100468.81;5078261;28;48352;-74
2023/03/06 11:07:19;;;;;;;;;29.25;27.50;;;;;10.93;72.40;100464.84;5075543;28;45269;-75
2023/03/06 11:09:58;;;;;;;;;26.25;26.00;;;;;10.97;69.76;100467.97;5080443;27;45376;-75
2023/03/06 11:12:37;;;;;;;;;27.33;25.67;;;;;10.90;66.72;100461.75;5080128;28;45376;-75
2023/03/06 11:15:08;;;;;;;;;29.33;28.67;;;;;10.90;66.04;100457.25;5078774;28;46387;-75
2023/03/06 11:17:46;;;;;;;;;26.00;24.67;;;;;11.07;66.12;100455.22;5079947;27;45391;-75